createdAt,value
2023-04-17T00:01:46.778Z,99630.38
2023-04-17T00:04:15.893Z,99640.00
2023-04-17T00:06:45.745Z,99637.06
2023-04-17T00:09:12.896Z,99638.88
2023-04-17T00:11:40.808Z,99644.34
2023-04-17T00:14:07.693Z,99642.97
2023-04-17T00:16:34.629Z,99639.88
2023-04-17T00:19:01.583Z,99638.78
2023-04-17T00:21:30.076Z,99638.97
2023-04-17T00:23:57.661Z,99635.38
2023-04-17T00:26:24.997Z,99637.09
2023-04-17T00:28:52.035Z,99638.75
2023-04-17T00:31:19.193Z,99639.53
2023-04-17T00:33:46.714Z,99635.53
2023-04-17T00:36:15.532Z,99634.38
2023-04-17T00:38:42.852Z,99632.53
2023-04-17T00:41:09.893Z,99631.91
2023-04-17T00:43:36.843Z,99622.59
2023-04-17T00:46:05.242Z,99625.28
2023-04-17T00:48:34.174Z,99625.34
2023-04-17T00:51:02.487Z,99628.09
2023-04-17T00:53:31.318Z,99629.69
2023-04-17T00:56:03.018Z,99631.31
2023-04-17T00:58:30.835Z,99627.31
2023-04-17T01:00:58.061Z,99624.03
2023-04-17T01:03:29.675Z,99622.13
2023-04-17T01:05:57.026Z,99620.53
2023-04-17T01:08:24.040Z,99618.03
2023-04-17T01:10:52.241Z,99618.06
2023-04-17T01:13:19.113Z,99616.81
2023-04-17T01:15:47.156Z,99613.28
2023-04-17T01:18:14.176Z,99613.47
2023-04-17T01:20:41.159Z,99610.38
2023-04-17T01:23:08.001Z,99605.66
2023-04-17T01:25:34.862Z,99608.91
2023-04-17T01:28:01.802Z,99607.25
2023-04-17T01:30:29.725Z,99606.97
2023-04-17T01:37:22.077Z,99605.13
2023-04-17T01:39:48.871Z,99615.13
2023-04-17T01:42:16.000Z,99612.31
2023-04-17T01:44:43.939Z,99615.78
2023-04-17T01:47:11.053Z,99610.38
2023-04-17T01:49:39.267Z,99611.16
2023-04-17T01:52:06.312Z,99608.53
2023-04-17T01:54:33.606Z,99608.09
2023-04-17T01:57:00.428Z,99607.56
2023-04-17T01:59:27.255Z,99608.28
2023-04-17T02:01:56.763Z,99611.63
2023-04-17T02:04:23.704Z,99605.81
2023-04-17T02:06:50.809Z,99605.88
2023-04-17T02:09:17.619Z,99611.56
2023-04-17T02:11:44.517Z,99608.66
2023-04-17T02:14:11.457Z,99614.72
2023-04-17T02:16:40.147Z,99613.06
2023-04-17T02:19:07.091Z,99617.88
2023-04-17T02:21:34.024Z,99621.31
2023-04-17T02:24:00.909Z,99609.59
2023-04-17T02:26:28.406Z,99617.75
2023-04-17T02:28:55.542Z,99607.81
2023-04-17T02:31:24.066Z,99616.84
2023-04-17T02:33:50.997Z,99612.91
2023-04-17T02:36:17.839Z,99623.41
2023-04-17T02:39:11.912Z,99619.75
2023-04-17T02:41:39.950Z,99624.91
2023-04-17T02:44:08.074Z,99625.13
2023-04-17T02:46:34.922Z,99617.56
2023-04-17T02:49:02.496Z,99620.78
2023-04-17T02:51:31.203Z,99627.59
2023-04-17T02:53:58.290Z,99625.19
2023-04-17T02:56:25.180Z,99621.56
2023-04-17T02:58:52.076Z,99623.38
2023-04-17T03:01:20.174Z,99619.28
2023-04-17T03:03:47.855Z,99613.88
2023-04-17T03:06:15.536Z,99624.75
2023-04-17T03:08:42.316Z,99616.47
2023-04-17T03:11:09.329Z,99619.84
2023-04-17T03:13:39.087Z,99619.34
2023-04-17T03:16:06.404Z,99619.91
2023-04-17T03:18:39.461Z,99624.69
2023-04-17T03:21:06.858Z,99620.22
2023-04-17T03:23:35.992Z,99627.44
2023-04-17T03:26:04.949Z,99625.88
2023-04-17T03:28:33.650Z,99626.75
2023-04-17T03:31:02.429Z,99626.16
2023-04-17T03:33:31.166Z,99622.31
2023-04-17T03:35:58.794Z,99632.63
2023-04-17T03:38:26.063Z,99626.19
2023-04-17T03:40:54.047Z,99619.88
2023-04-17T03:43:23.341Z,99630.88
2023-04-17T03:45:51.408Z,99626.31
2023-04-17T03:48:18.960Z,99631.47
2023-04-17T03:50:49.296Z,99631.41
2023-04-17T03:53:16.209Z,99637.19
2023-04-17T03:55:43.591Z,99636.41
2023-04-17T03:58:22.150Z,99635.94
2023-04-17T04:00:50.273Z,99631.13
2023-04-17T04:03:18.342Z,99634.81
2023-04-17T04:05:47.214Z,99628.25
2023-04-17T04:08:14.216Z,99630.75
2023-04-17T04:10:48.708Z,99633.78
2023-04-17T04:13:20.934Z,99628.91
2023-04-17T04:15:55.918Z,99624.03
2023-04-17T04:18:25.892Z,99633.53
2023-04-17T04:20:53.281Z,99631.13
2023-04-17T04:23:28.301Z,99630.44
2023-04-17T04:25:57.038Z,99636.13
2023-04-17T04:28:31.893Z,99634.94
2023-04-17T04:30:59.811Z,99638.44
2023-04-17T04:33:31.260Z,99646.75
2023-04-17T04:36:01.808Z,99645.75
2023-04-17T04:38:32.993Z,99646.16
2023-04-17T04:41:10.428Z,99649.91
2023-04-17T04:43:39.065Z,99645.09
2023-04-17T04:46:08.992Z,99653.44
2023-04-17T04:48:42.691Z,99649.66
2023-04-17T04:51:11.513Z,99646.97
2023-04-17T04:53:40.033Z,99655.16
2023-04-17T04:56:07.341Z,99652.69
2023-04-17T04:58:36.803Z,99650.41
2023-04-17T05:01:04.274Z,99653.81
2023-04-17T05:03:38.471Z,99652.53
2023-04-17T05:06:17.399Z,99659.63
2023-04-17T05:08:49.367Z,99656.09
2023-04-17T05:11:16.597Z,99660.72
2023-04-17T05:13:44.981Z,99665.66
2023-04-17T05:16:20.073Z,99667.53
2023-04-17T05:18:48.450Z,99663.84
2023-04-17T05:21:19.933Z,99675.06
2023-04-17T05:23:49.586Z,99674.41
2023-04-17T05:26:16.864Z,99672.53
2023-04-17T05:28:46.670Z,99674.13
2023-04-17T05:31:19.748Z,99676.34
2023-04-17T05:33:47.369Z,99678.66
2023-04-17T05:36:14.797Z,99673.91
2023-04-17T05:38:43.514Z,99682.69
2023-04-17T05:41:42.949Z,99678.69
2023-04-17T05:44:10.191Z,99681.81
2023-04-17T05:47:06.948Z,99685.31
2023-04-17T05:49:35.546Z,99687.63
2023-04-17T05:52:03.536Z,99684.19
2023-04-17T05:54:31.477Z,99679.63
2023-04-17T05:56:59.851Z,99686.59
2023-04-17T05:59:28.246Z,99692.47
2023-04-17T06:01:55.614Z,99681.53
2023-04-17T06:04:24.626Z,99686.06
2023-04-17T06:06:52.666Z,99688.81
2023-04-17T06:09:24.485Z,99684.03
2023-04-17T06:11:53.639Z,99682.16
2023-04-17T06:14:22.032Z,99681.50
2023-04-17T06:16:56.619Z,99692.88
2023-04-17T06:19:26.313Z,99698.88
2023-04-17T06:21:53.667Z,99693.00
2023-04-17T06:24:20.534Z,99694.50
2023-04-17T06:26:48.015Z,99696.69
2023-04-17T06:29:17.576Z,99699.09
2023-04-17T06:31:44.998Z,99703.69
2023-04-17T06:34:13.197Z,99706.50
2023-04-17T06:36:43.273Z,99704.91
2023-04-17T06:39:10.603Z,99708.03
2023-04-17T06:41:37.856Z,99708.66
2023-04-17T06:44:04.753Z,99706.75
2023-04-17T06:46:46.418Z,99709.09
2023-04-17T06:49:13.970Z,99714.34
2023-04-17T06:51:41.500Z,99719.34
2023-04-17T06:54:09.919Z,99718.44
2023-04-17T06:56:36.598Z,99715.59
2023-04-17T06:59:05.460Z,99718.47
2023-04-17T07:01:32.402Z,99719.34
2023-04-17T07:03:59.179Z,99723.59
2023-04-17T07:06:26.628Z,99718.38
2023-04-17T07:08:55.412Z,99727.72
2023-04-17T07:11:22.228Z,99724.38
2023-04-17T07:13:48.806Z,99724.88
2023-04-17T07:16:16.388Z,99727.03
2023-04-17T07:18:45.956Z,99721.38
2023-04-17T07:21:12.790Z,99729.84
2023-04-17T07:23:40.853Z,99731.16
2023-04-17T07:26:07.619Z,99731.72
2023-04-17T07:28:34.260Z,99733.22
2023-04-17T07:31:00.853Z,99736.88
2023-04-17T07:33:27.746Z,99735.78
2023-04-17T07:35:55.436Z,99733.81
2023-04-17T07:38:22.280Z,99736.66
2023-04-17T07:40:48.915Z,99743.94
2023-04-17T07:43:16.730Z,99742.41
2023-04-17T07:45:43.398Z,99748.81
2023-04-17T07:48:10.261Z,99745.16
2023-04-17T07:50:36.856Z,99745.91
2023-04-17T07:53:03.535Z,99748.94
2023-04-17T07:55:31.042Z,99745.75
2023-04-17T07:57:58.759Z,99749.31
2023-04-17T08:00:25.459Z,99752.84
2023-04-17T08:03:01.340Z,99736.72
2023-04-17T08:05:29.767Z,99743.66
2023-04-17T08:07:56.823Z,99742.78
2023-04-17T08:10:23.747Z,99750.78
2023-04-17T08:12:53.321Z,99756.59
2023-04-17T08:15:20.756Z,99755.16
2023-04-17T08:17:48.285Z,99755.16
2023-04-17T08:24:36.626Z,99763.44
2023-04-17T08:27:03.910Z,99763.25
2023-04-17T08:29:30.988Z,99776.00
2023-04-17T08:32:13.194Z,99781.88
2023-04-17T08:34:40.907Z,99766.22
2023-04-17T08:37:08.049Z,99769.66
2023-04-17T08:39:35.381Z,99767.06
2023-04-17T08:42:13.311Z,99773.47
2023-04-17T08:44:44.892Z,99780.34
2023-04-17T08:47:14.080Z,99765.53
2023-04-17T08:49:43.952Z,99772.75
2023-04-17T08:52:11.561Z,99777.25
2023-04-17T08:54:39.654Z,99784.84
2023-04-17T08:57:07.201Z,99783.91
2023-04-17T08:59:34.472Z,99773.22
2023-04-17T09:02:06.388Z,99775.97
2023-04-17T09:04:41.979Z,99768.94
2023-04-17T09:10:57.151Z,99760.66
2023-04-17T09:13:25.891Z,99766.19
2023-04-17T09:16:15.754Z,99770.94
2023-04-17T09:23:14.063Z,99784.63
2023-04-17T09:25:41.037Z,99776.28
2023-04-17T09:28:13.753Z,99780.72
2023-04-17T09:30:42.285Z,99782.72
2023-04-17T09:33:10.590Z,99784.47
2023-04-17T09:35:39.920Z,99780.72
2023-04-17T09:38:07.812Z,99791.88
2023-04-17T09:40:40.009Z,99793.81
2023-04-17T09:43:10.812Z,99788.25
2023-04-17T09:45:42.092Z,99789.13
2023-04-17T09:48:11.155Z,99794.44
2023-04-17T09:50:39.142Z,99795.72
2023-04-17T09:53:07.706Z,99794.19
2023-04-17T09:55:36.423Z,99795.09
2023-04-17T09:58:06.139Z,99803.38
2023-04-17T10:00:32.881Z,99793.66
2023-04-17T10:03:00.225Z,99805.34
2023-04-17T10:05:29.861Z,99803.25
2023-04-17T10:07:56.862Z,99811.09
2023-04-17T10:10:25.223Z,99798.84
2023-04-17T10:12:55.868Z,99804.53
2023-04-17T10:15:42.051Z,99806.34
2023-04-17T10:18:23.144Z,99795.03
2023-04-17T10:20:53.637Z,99803.34
2023-04-17T10:23:47.283Z,99796.03
2023-04-17T10:26:26.114Z,99795.84
2023-04-17T10:28:54.416Z,99790.09
2023-04-17T10:31:23.304Z,99798.25
2023-04-17T10:33:52.745Z,99796.84
2023-04-17T10:36:39.693Z,99785.03
2023-04-17T10:39:14.146Z,99787.69
2023-04-17T10:42:03.841Z,99782.16
2023-04-17T10:44:39.423Z,99794.28
2023-04-17T10:47:16.025Z,99781.28
2023-04-17T10:49:52.021Z,99789.25
2023-04-17T10:52:44.723Z,99774.28
2023-04-17T10:55:16.406Z,99771.63
2023-04-17T10:58:02.225Z,99772.19
2023-04-17T11:00:49.226Z,99778.44
2023-04-17T11:03:16.900Z,99780.63
2023-04-17T11:05:47.303Z,99773.78
2023-04-17T11:08:14.456Z,99781.78
2023-04-17T11:10:41.292Z,99782.72
2023-04-17T11:13:08.112Z,99782.19
2023-04-17T11:15:35.724Z,99780.69
2023-04-17T11:18:03.629Z,99784.84
2023-04-17T11:20:32.133Z,99791.16
2023-04-17T11:23:03.235Z,99782.66
2023-04-17T11:25:31.691Z,99778.25
2023-04-17T11:27:59.929Z,99781.66
2023-04-17T11:30:31.210Z,99785.94
2023-04-17T11:33:02.267Z,99788.41
2023-04-17T11:35:41.093Z,99789.72
2023-04-17T11:38:17.916Z,99784.41
2023-04-17T11:40:46.474Z,99788.22
2023-04-17T11:43:13.726Z,99775.81
2023-04-17T11:45:42.802Z,99783.19
2023-04-17T11:48:12.387Z,99787.75
2023-04-17T11:50:40.739Z,99781.28
2023-04-17T11:53:07.910Z,99779.84
2023-04-17T11:55:35.602Z,99788.97
2023-04-17T11:58:09.913Z,99791.84
2023-04-17T12:00:38.280Z,99780.19
2023-04-17T12:03:35.682Z,99779.84
2023-04-17T12:06:05.084Z,99784.38
2023-04-17T12:08:41.333Z,99779.28
2023-04-17T12:11:14.506Z,99771.63
2023-04-17T12:13:41.115Z,99773.84
2023-04-17T12:16:07.791Z,99771.47
2023-04-17T12:18:34.390Z,99790.94
2023-04-17T12:21:00.992Z,99781.94
2023-04-17T12:23:27.720Z,99787.88
2023-04-17T12:25:54.321Z,99777.38
2023-04-17T12:28:22.064Z,99777.63
2023-04-17T12:30:48.748Z,99776.03
2023-04-17T12:33:15.492Z,99775.28
2023-04-17T12:35:42.150Z,99763.94
2023-04-17T12:38:09.490Z,99764.13
2023-04-17T12:40:36.127Z,99750.59
2023-04-17T12:43:04.209Z,99751.25
2023-04-17T12:45:30.963Z,99757.75
2023-04-17T12:47:57.841Z,99747.19
2023-04-17T12:50:25.207Z,99748.41
2023-04-17T12:52:51.800Z,99746.19
2023-04-17T12:55:19.276Z,99753.72
2023-04-17T12:57:46.386Z,99760.97
2023-04-17T13:00:13.757Z,99768.34
2023-04-17T13:02:40.514Z,99753.88
2023-04-17T13:05:07.956Z,99775.91
2023-04-17T13:07:34.504Z,99738.69
2023-04-17T13:10:01.207Z,99737.88
2023-04-17T13:12:27.886Z,99737.84
2023-04-17T13:14:56.861Z,99737.66
2023-04-17T13:17:24.733Z,99731.59
2023-04-17T13:19:51.593Z,99725.72
2023-04-17T13:22:20.015Z,99732.41
2023-04-17T13:24:46.894Z,99733.66
2023-04-17T13:27:13.743Z,99719.22
2023-04-17T13:29:40.536Z,99716.00
2023-04-17T13:32:07.158Z,99726.44
2023-04-17T13:34:33.760Z,99732.81
2023-04-17T13:37:00.522Z,99742.81
2023-04-17T13:39:27.179Z,99719.25
2023-04-17T13:41:53.881Z,99722.28
2023-04-17T13:44:20.497Z,99725.00
2023-04-17T13:46:47.430Z,99719.19
2023-04-17T13:49:15.073Z,99720.72
2023-04-17T13:51:41.989Z,99707.03
2023-04-17T13:54:09.900Z,99705.63
2023-04-17T13:56:36.609Z,99714.66
2023-04-17T13:59:04.634Z,99704.91
2023-04-17T14:01:32.089Z,99705.63
2023-04-17T14:04:01.724Z,99704.56
2023-04-17T14:06:29.010Z,99697.47
2023-04-17T14:08:56.053Z,99698.28
2023-04-17T14:11:24.195Z,99708.38
2023-04-17T14:13:51.517Z,99710.47
2023-04-17T14:16:19.157Z,99714.63
2023-04-17T14:18:49.544Z,99707.50
2023-04-17T14:21:17.074Z,99701.88
2023-04-17T14:23:46.093Z,99696.69
2023-04-17T14:26:13.041Z,99689.19
2023-04-17T14:28:39.788Z,99699.94
2023-04-17T14:31:06.914Z,99694.56
2023-04-17T14:33:33.683Z,99704.75
2023-04-17T14:36:00.529Z,99695.84
2023-04-17T14:38:27.186Z,99701.75
2023-04-17T14:40:53.976Z,99684.53
2023-04-17T14:43:20.639Z,99690.72
2023-04-17T14:45:47.263Z,99714.81
2023-04-17T14:48:14.095Z,99703.66
2023-04-17T14:50:40.819Z,99705.16
2023-04-17T14:53:07.422Z,99703.06
2023-04-17T14:55:34.365Z,99687.31
2023-04-17T14:58:00.947Z,99698.63
2023-04-17T15:00:27.698Z,99695.13
2023-04-17T15:02:54.485Z,99706.78
2023-04-17T15:05:22.470Z,99686.31
2023-04-17T15:07:49.235Z,99692.56
2023-04-17T15:10:16.589Z,99695.81
2023-04-17T15:12:44.096Z,99704.00
2023-04-17T15:15:15.528Z,99692.63
2023-04-17T15:17:42.405Z,99708.09
2023-04-17T15:20:09.239Z,99704.56
2023-04-17T15:22:35.856Z,99708.53
2023-04-17T15:25:02.607Z,99709.19
2023-04-17T15:27:29.350Z,99714.91
2023-04-17T15:29:56.275Z,99708.50
2023-04-17T15:32:23.041Z,99705.31
2023-04-17T15:34:49.740Z,99713.44
2023-04-17T15:37:16.475Z,99702.06
2023-04-17T15:39:45.049Z,99704.69
2023-04-17T15:42:11.967Z,99709.31
2023-04-17T15:44:38.741Z,99706.34
2023-04-17T15:47:06.534Z,99710.34
2023-04-17T15:49:33.493Z,99714.13
2023-04-17T15:52:00.142Z,99708.59
2023-04-17T15:54:27.029Z,99703.00
2023-04-17T15:56:53.688Z,99700.50
2023-04-17T15:59:20.821Z,99698.28
2023-04-17T16:01:48.188Z,99702.06
2023-04-17T16:04:15.306Z,99716.03
2023-04-17T16:06:42.191Z,99717.41
2023-04-17T16:09:09.754Z,99715.03
2023-04-17T16:11:36.470Z,99700.41
2023-04-17T16:14:03.256Z,99708.09
2023-04-17T16:16:30.149Z,99699.97
2023-04-17T16:18:57.363Z,99692.13
2023-04-17T16:21:23.999Z,99701.63
2023-04-17T16:23:50.819Z,99688.16
2023-04-17T16:26:17.587Z,99691.00
2023-04-17T16:28:45.739Z,99699.53
2023-04-17T16:31:13.095Z,99693.94
2023-04-17T16:33:41.074Z,99702.94
2023-04-17T16:36:07.869Z,99690.56
2023-04-17T16:38:35.568Z,99691.97
2023-04-17T16:41:04.406Z,99691.72
2023-04-17T16:43:31.159Z,99685.94
2023-04-17T16:45:58.474Z,99685.34
2023-04-17T16:48:26.368Z,99687.84
2023-04-17T16:50:53.085Z,99685.06
2023-04-17T16:53:21.210Z,99693.94
2023-04-17T16:55:48.245Z,99694.13
2023-04-17T16:58:14.914Z,99693.91
2023-04-17T17:00:41.592Z,99701.91
2023-04-17T17:03:08.665Z,99705.25
2023-04-17T17:05:35.937Z,99699.16
2023-04-17T17:08:02.757Z,99704.63
2023-04-17T17:10:29.607Z,99707.31
2023-04-17T17:12:56.209Z,99708.66
2023-04-17T17:15:22.934Z,99712.75
2023-04-17T17:17:49.632Z,99717.47
2023-04-17T17:20:16.390Z,99719.16
2023-04-17T17:22:43.005Z,99719.22
2023-04-17T17:25:09.912Z,99716.53
2023-04-17T17:27:36.547Z,99714.75
2023-04-17T17:30:04.200Z,99720.56
2023-04-17T17:32:30.856Z,99723.88
2023-04-17T17:34:58.892Z,99721.28
2023-04-17T17:37:26.686Z,99724.28
2023-04-17T17:39:53.389Z,99720.19
2023-04-17T17:42:20.212Z,99723.16
2023-04-17T17:44:46.819Z,99726.88
2023-04-17T17:47:13.472Z,99721.19
2023-04-17T17:49:40.080Z,99715.78
2023-04-17T17:52:06.724Z,99721.38
2023-04-17T17:54:37.589Z,99720.97
2023-04-17T17:57:05.713Z,99729.78
2023-04-17T17:59:32.823Z,99721.03
2023-04-17T18:02:01.501Z,99726.06
2023-04-17T18:04:28.675Z,99731.97
2023-04-17T18:06:55.437Z,99732.31
2023-04-17T18:09:22.136Z,99732.63
2023-04-17T18:11:48.771Z,99743.69
2023-04-17T18:14:15.615Z,99734.13
2023-04-17T18:16:43.474Z,99730.16
2023-04-17T18:19:10.189Z,99736.03
2023-04-17T18:21:36.945Z,99737.94
2023-04-17T18:24:03.721Z,99738.97
2023-04-17T18:26:31.282Z,99747.13
2023-04-17T18:28:58.188Z,99746.09
2023-04-17T18:31:26.298Z,99738.03
2023-04-17T18:33:53.240Z,99743.84
2023-04-17T18:36:20.010Z,99746.97
2023-04-17T18:38:46.684Z,99748.28
2023-04-17T18:41:13.398Z,99753.13
2023-04-17T18:43:40.136Z,99754.22
2023-04-17T18:46:07.706Z,99756.94
2023-04-17T18:48:34.769Z,99755.97
2023-04-17T18:51:17.488Z,99768.78
2023-04-17T18:53:44.336Z,99771.31
2023-04-17T18:56:13.561Z,99769.22
2023-04-17T18:58:40.616Z,99768.84
2023-04-17T19:01:09.276Z,99769.94
2023-04-17T19:03:37.058Z,99775.16
2023-04-17T19:06:03.962Z,99777.81
2023-04-17T19:08:30.745Z,99770.03
2023-04-17T19:10:57.410Z,99774.59
2023-04-17T19:13:24.595Z,99776.88
2023-04-17T19:15:51.291Z,99775.84
2023-04-17T19:18:17.960Z,99777.00
2023-04-17T19:20:44.659Z,99777.31
2023-04-17T19:23:11.401Z,99780.47
2023-04-17T19:25:44.280Z,99775.94
2023-04-17T19:28:11.481Z,99772.41
2023-04-17T19:30:38.657Z,99777.69
2023-04-17T19:33:05.899Z,99773.78
2023-04-17T19:35:32.768Z,99776.75
2023-04-17T19:37:59.530Z,99779.72
2023-04-17T19:40:26.225Z,99776.69
2023-04-17T19:42:53.601Z,99778.91
2023-04-17T19:45:20.872Z,99783.66
2023-04-17T19:47:54.579Z,99788.19
2023-04-17T19:50:21.963Z,99787.59
2023-04-17T19:52:48.746Z,99780.31
2023-04-17T19:55:15.702Z,99783.34
2023-04-17T19:57:44.745Z,99779.22
2023-04-17T20:00:12.781Z,99779.44
2023-04-17T20:02:39.570Z,99776.09
2023-04-17T20:09:31.533Z,99776.63
2023-04-17T20:11:58.242Z,99779.06
2023-04-17T20:14:25.834Z,99775.22
2023-04-17T20:16:52.672Z,99781.91
2023-04-17T20:19:20.391Z,99786.19
2023-04-17T20:21:47.633Z,99772.19
2023-04-17T20:24:16.168Z,99775.59
2023-04-17T20:26:44.231Z,99774.88
2023-04-17T20:29:11.324Z,99778.78
2023-04-17T20:31:38.922Z,99776.53
2023-04-17T20:34:05.599Z,99774.03
2023-04-17T20:36:32.296Z,99787.16
2023-04-17T20:38:58.970Z,99777.84
2023-04-17T20:41:25.941Z,99778.00
2023-04-17T20:43:58.035Z,99771.66
2023-04-17T20:46:25.587Z,99784.75
2023-04-17T20:48:52.584Z,99774.16
2023-04-17T20:51:19.784Z,99771.63
2023-04-17T20:53:46.433Z,99774.25
2023-04-17T20:56:13.103Z,99778.03
2023-04-17T20:58:39.819Z,99779.72
2023-04-17T21:01:06.480Z,99772.75
2023-04-17T21:03:33.344Z,99774.81
2023-04-17T21:06:01.077Z,99779.00
2023-04-17T21:08:27.822Z,99765.19
2023-04-17T21:10:54.595Z,99766.91
2023-04-17T21:13:22.119Z,99768.63
2023-04-17T21:15:48.832Z,99775.59
2023-04-17T21:18:15.611Z,99768.78
2023-04-17T21:20:42.171Z,99783.66
2023-04-17T21:23:08.899Z,99773.94
2023-04-17T21:25:35.838Z,99768.38
2023-04-17T21:28:02.589Z,99774.31
2023-04-17T21:30:29.241Z,99770.38
2023-04-17T21:32:56.077Z,99772.78
2023-04-17T21:35:22.867Z,99770.31
2023-04-17T21:37:49.530Z,99771.97
2023-04-17T21:40:17.210Z,99770.28
2023-04-17T21:42:43.832Z,99772.13
2023-04-17T21:45:11.259Z,99766.03
2023-04-17T21:47:38.025Z,99765.16
2023-04-17T21:50:05.122Z,99770.38
2023-04-17T21:52:31.882Z,99770.38
2023-04-17T21:55:03.290Z,99767.66
2023-04-17T21:57:30.520Z,99777.34
2023-04-17T21:59:57.156Z,99778.34
2023-04-17T22:02:23.806Z,99775.06
2023-04-17T22:04:50.652Z,99773.88
2023-04-17T22:07:18.477Z,99776.56
2023-04-17T22:09:45.190Z,99777.53
2023-04-17T22:12:13.438Z,99772.44
2023-04-17T22:14:40.575Z,99773.22
2023-04-17T22:17:07.190Z,99775.97
2023-04-17T22:19:33.823Z,99776.03
2023-04-17T22:22:00.415Z,99777.84
2023-04-17T22:24:27.009Z,99781.47
2023-04-17T22:26:53.602Z,99777.09
2023-04-17T22:29:20.278Z,99778.25
2023-04-17T22:31:49.313Z,99775.72
2023-04-17T22:34:15.901Z,99778.41
2023-04-17T22:36:44.241Z,99779.31
2023-04-17T22:39:11.015Z,99779.47
2023-04-17T22:41:37.715Z,99777.78
2023-04-17T22:44:04.534Z,99770.88
2023-04-17T22:46:31.328Z,99778.69
2023-04-17T22:48:58.427Z,99771.22
2023-04-17T22:51:29.706Z,99778.13
2023-04-17T22:53:56.293Z,99771.03
2023-04-17T22:56:23.029Z,99773.38
2023-04-17T22:58:49.706Z,99776.63
2023-04-17T23:01:16.431Z,99770.78
2023-04-17T23:03:43.075Z,99769.91
2023-04-17T23:06:11.439Z,99770.78
2023-04-17T23:08:38.065Z,99775.09
2023-04-17T23:11:05.922Z,99772.50
2023-04-17T23:13:32.808Z,99773.56
2023-04-17T23:15:59.545Z,99767.56
2023-04-17T23:18:26.276Z,99763.16
2023-04-17T23:20:52.989Z,99764.09
2023-04-17T23:23:19.596Z,99770.91
2023-04-17T23:25:46.325Z,99768.69
2023-04-17T23:28:13.079Z,99766.75
2023-04-17T23:30:39.923Z,99770.22
2023-04-17T23:33:06.769Z,99772.09
2023-04-17T23:35:33.485Z,99776.38
2023-04-17T23:38:00.388Z,99775.53
2023-04-17T23:40:28.189Z,99771.19
2023-04-17T23:42:55.157Z,99769.00
2023-04-17T23:45:21.836Z,99767.22
2023-04-17T23:47:48.626Z,99762.81
2023-04-17T23:50:15.322Z,99753.94
2023-04-17T23:52:41.948Z,99758.28
2023-04-17T23:55:08.919Z,99758.25
2023-04-17T23:57:37.723Z,99758.28
